Kismanyo, Somalia
Current Conditions -  °F | °C
As of 6:55 AM on Monday 22 Dec 2014 (Local Time) from KQVF Reporting Station
Few Clouds Few Clouds  
Wind Chill: 80°   Ceiling: Unl
Heat Index: 83°   Visibility: 6mi
Dew Point: 73°   Wind: 2mph
Humidity: 80%   Direction: 90°E
Pressure: 29.94"   Gusts: NA
Location:  0.37°S, 42.53°E
Report Text: KQVF 220355Z AUTO 09002KT 9999 FEW023 26/23 A2994 RMK AO2 SLP137 T02640228
Loading
Personal Weather Stations






























Interactive Weather Map New forecast layout! Learn more

10-Day Weather Forecast

Advertisements
Track Severe Weather on mobile